createdAt,value
2023-01-30T00:01:55.399Z,8.57
2023-01-30T00:04:23.085Z,8.25
2023-01-30T00:06:50.564Z,8.45
2023-01-30T00:09:18.204Z,8.00
2023-01-30T00:11:45.639Z,8.73
2023-01-30T00:14:13.180Z,8.18
2023-01-30T00:16:40.665Z,8.73
2023-01-30T00:19:08.147Z,8.95
2023-01-30T00:21:35.469Z,8.65
2023-01-30T00:24:03.375Z,9.02
2023-01-30T00:26:30.853Z,8.35
2023-01-30T00:28:58.368Z,8.70
2023-01-30T00:31:25.879Z,9.70
2023-01-30T00:33:53.425Z,9.18
2023-01-30T00:36:24.250Z,9.45
2023-01-30T00:38:52.669Z,9.57
2023-01-30T00:41:22.626Z,9.73
2023-01-30T00:44:08.671Z,9.82
2023-01-30T00:46:54.394Z,9.80
2023-01-30T00:49:22.669Z,9.70
2023-01-30T00:51:50.038Z,9.25
2023-01-30T00:54:17.458Z,9.60
2023-01-30T00:56:44.887Z,10.88
2023-01-30T00:59:12.458Z,9.38
2023-01-30T01:01:40.208Z,9.52
2023-01-30T01:04:10.782Z,9.30
2023-01-30T01:06:39.253Z,11.50
2023-01-30T01:11:34.765Z,9.68
2023-01-30T01:14:04.339Z,10.20
2023-01-30T01:16:33.048Z,9.77
2023-01-30T01:19:01.132Z,9.80
2023-01-30T01:21:29.009Z,11.07
2023-01-30T01:24:00.660Z,10.43
2023-01-30T01:26:28.820Z,9.45
2023-01-30T01:28:59.947Z,10.23
2023-01-30T01:31:27.530Z,9.93
2023-01-30T01:33:58.369Z,9.82
2023-01-30T01:36:52.223Z,10.02
2023-01-30T01:39:14.214Z,9.45
2023-01-30T01:41:42.599Z,9.52
2023-01-30T01:44:12.584Z,10.10
2023-01-30T01:46:57.212Z,9.68
2023-01-30T01:49:43.231Z,10.63
2023-01-30T01:52:16.314Z,10.70
2023-01-30T01:54:58.459Z,10.27
2023-01-30T01:57:34.009Z,10.80
2023-01-30T02:00:13.304Z,10.07
2023-01-30T02:02:50.164Z,9.80
2023-01-30T02:05:22.399Z,9.90
2023-01-30T02:08:12.872Z,9.93
2023-01-30T02:10:54.424Z,10.40
2023-01-30T02:13:22.288Z,11.40
2023-01-30T02:15:50.659Z,12.13
2023-01-30T02:18:19.208Z,11.98
2023-01-30T02:21:11.574Z,12.20
2023-01-30T02:23:51.164Z,12.07
2023-01-30T02:29:23.209Z,11.30
2023-01-30T02:32:05.763Z,11.40
2023-01-30T02:34:59.141Z,12.05
2023-01-30T02:37:44.605Z,11.05
2023-01-30T02:40:18.384Z,10.98
2023-01-30T02:43:00.945Z,11.55
2023-01-30T02:45:33.049Z,11.07
2023-01-30T02:48:10.971Z,10.13
2023-01-30T02:50:38.357Z,10.20
2023-01-30T02:53:07.237Z,10.38
2023-01-30T02:58:04.969Z,9.77
2023-01-30T03:00:35.685Z,10.10
2023-01-30T03:03:18.564Z,10.68
2023-01-30T03:05:54.573Z,9.75
2023-01-30T03:08:33.256Z,11.35
2023-01-30T03:11:08.773Z,11.70
2023-01-30T03:13:53.423Z,12.13
2023-01-30T03:16:38.208Z,11.63
2023-01-30T03:19:10.185Z,13.35
2023-01-30T03:21:42.592Z,13.82
2023-01-30T03:24:10.971Z,12.93
2023-01-30T03:26:45.224Z,13.93
2023-01-30T03:29:13.004Z,14.75
2023-01-30T03:31:40.722Z,14.30
2023-01-30T03:34:09.089Z,14.30
2023-01-30T03:36:38.511Z,14.90
2023-01-30T03:39:06.506Z,14.93
2023-01-30T03:41:34.389Z,15.00
2023-01-30T03:44:04.075Z,14.43
2023-01-30T03:46:32.308Z,14.88
2023-01-30T03:48:59.867Z,14.57
2023-01-30T03:54:11.705Z,14.77
2023-01-30T03:56:39.315Z,15.23
2023-01-30T03:59:08.417Z,15.88
2023-01-30T04:01:41.491Z,14.88
2023-01-30T04:04:09.116Z,15.38
2023-01-30T04:06:36.822Z,16.23
2023-01-30T04:09:05.547Z,16.63
2023-01-30T04:11:45.778Z,16.33
2023-01-30T04:14:13.649Z,16.17
2023-01-30T04:17:04.038Z,15.90
2023-01-30T04:20:01.083Z,16.67
2023-01-30T04:22:31.199Z,16.85
2023-01-30T04:24:59.084Z,17.42
2023-01-30T04:27:26.827Z,16.35
2023-01-30T04:30:14.753Z,15.45
2023-01-30T04:32:43.340Z,16.05
2023-01-30T04:35:12.022Z,16.92
2023-01-30T04:37:40.382Z,16.67
2023-01-30T04:40:10.281Z,16.42
2023-01-30T04:48:27.165Z,15.55
2023-01-30T04:50:57.409Z,16.52
2023-01-30T04:53:25.992Z,15.30
2023-01-30T04:56:01.810Z,15.10
2023-01-30T04:58:38.022Z,16.35
2023-01-30T05:01:17.686Z,15.15
2023-01-30T05:06:47.675Z,15.57
2023-01-30T05:09:26.807Z,15.15
2023-01-30T05:11:58.853Z,17.27
2023-01-30T05:14:31.435Z,15.98
2023-01-30T05:17:08.606Z,16.05
2023-01-30T05:19:56.211Z,15.95
2023-01-30T05:25:44.249Z,15.00
2023-01-30T05:28:14.348Z,15.30
2023-01-30T05:30:47.251Z,15.30
2023-01-30T05:33:15.209Z,14.27
2023-01-30T05:35:50.544Z,14.57
2023-01-30T05:38:18.181Z,15.30
2023-01-30T05:40:45.937Z,15.30
2023-01-30T05:43:14.687Z,16.67
2023-01-30T05:48:10.244Z,14.10
2023-01-30T05:50:37.921Z,15.27
2023-01-30T05:53:05.721Z,16.52
2023-01-30T05:55:33.800Z,16.50
2023-01-30T05:58:01.700Z,15.85
2023-01-30T06:00:29.665Z,16.00
2023-01-30T06:02:58.534Z,15.82
2023-01-30T06:07:55.158Z,14.88
2023-01-30T06:10:28.570Z,14.98
2023-01-30T06:12:59.615Z,15.77
2023-01-30T06:18:12.333Z,17.17
2023-01-30T06:20:41.003Z,17.15
2023-01-30T06:25:53.373Z,17.48
2023-01-30T06:28:21.932Z,17.60
2023-01-30T06:30:50.299Z,18.88
2023-01-30T06:33:19.732Z,18.08
2023-01-30T06:35:50.647Z,18.33
2023-01-30T06:38:19.182Z,16.98
2023-01-30T06:40:48.929Z,17.65
2023-01-30T06:43:17.085Z,17.95
2023-01-30T06:45:45.649Z,18.02
2023-01-30T06:48:21.874Z,17.25
2023-01-30T06:50:51.616Z,16.25
2023-01-30T06:53:20.140Z,17.15
2023-01-30T06:55:51.891Z,18.27
2023-01-30T06:58:21.427Z,18.70
2023-01-30T07:00:50.561Z,18.70
2023-01-30T07:03:22.003Z,18.67
2023-01-30T07:05:53.032Z,18.35
2023-01-30T07:08:25.156Z,18.38
2023-01-30T07:10:54.072Z,17.83
2023-01-30T07:13:22.116Z,18.40
2023-01-30T07:15:50.233Z,18.38
2023-01-30T07:18:17.730Z,16.73
2023-01-30T07:20:49.846Z,18.92
2023-01-30T07:23:18.952Z,19.35
2023-01-30T07:25:46.865Z,19.15
2023-01-30T07:28:14.672Z,19.67
2023-01-30T07:30:42.506Z,19.95
2023-01-30T07:33:10.286Z,18.73
2023-01-30T07:35:38.592Z,19.20
2023-01-30T07:38:06.440Z,19.10
2023-01-30T07:43:08.370Z,18.63
2023-01-30T07:45:42.264Z,18.88
2023-01-30T07:48:14.389Z,20.13
2023-01-30T07:51:04.007Z,20.48
2023-01-30T07:54:21.038Z,20.90
2023-01-30T07:56:49.607Z,21.08
2023-01-30T07:59:17.998Z,20.08
2023-01-30T08:01:51.068Z,20.08
2023-01-30T08:04:21.455Z,20.25
2023-01-30T08:06:49.707Z,21.15
2023-01-30T08:09:28.484Z,19.67
2023-01-30T08:12:02.031Z,22.23
2023-01-30T08:14:31.189Z,22.52
2023-01-30T08:16:59.483Z,20.63
2023-01-30T08:19:30.999Z,22.33
2023-01-30T08:22:00.314Z,21.23
2023-01-30T08:24:33.250Z,21.17
2023-01-30T08:27:01.758Z,21.08
2023-01-30T08:29:31.296Z,22.00
2023-01-30T08:32:00.344Z,21.73
2023-01-30T08:34:29.325Z,22.45
2023-01-30T08:36:56.959Z,21.90
2023-01-30T08:39:24.980Z,24.98
2023-01-30T08:42:21.032Z,25.27
2023-01-30T08:44:48.814Z,23.58
2023-01-30T08:47:19.263Z,22.77
2023-01-30T08:49:47.689Z,22.05
2023-01-30T08:52:16.611Z,23.23
2023-01-30T08:54:46.550Z,22.13
2023-01-30T08:57:20.210Z,23.48
2023-01-30T08:59:53.961Z,21.15
2023-01-30T09:02:24.820Z,22.30
2023-01-30T09:04:54.974Z,23.70
2023-01-30T09:07:24.422Z,22.00
2023-01-30T09:09:52.170Z,21.05
2023-01-30T09:12:20.581Z,22.20
2023-01-30T09:14:48.199Z,23.00
2023-01-30T09:17:16.372Z,23.88
2023-01-30T09:19:44.333Z,23.48
2023-01-30T09:24:56.407Z,20.83
2023-01-30T09:27:24.619Z,23.45
2023-01-30T09:29:52.820Z,21.77
2023-01-30T09:32:23.285Z,22.13
2023-01-30T09:34:51.086Z,22.92
2023-01-30T09:37:19.030Z,22.80
2023-01-30T09:39:47.771Z,23.75
2023-01-30T09:42:53.215Z,21.52
2023-01-30T09:46:05.552Z,23.23
2023-01-30T09:52:37.700Z,22.77
2023-01-30T09:55:26.675Z,23.17
2023-01-30T09:57:55.595Z,23.02
2023-01-30T10:00:34.754Z,21.85
2023-01-30T10:03:13.384Z,22.83
2023-01-30T10:05:59.800Z,23.13
2023-01-30T10:08:47.054Z,22.48
2023-01-30T10:11:24.095Z,22.77
2023-01-30T10:14:01.028Z,22.73
2023-01-30T10:16:46.911Z,23.45
2023-01-30T10:19:35.658Z,24.52
2023-01-30T10:22:36.584Z,23.92
2023-01-30T10:25:38.664Z,21.83
2023-01-30T10:28:39.901Z,22.33
2023-01-30T10:31:45.245Z,23.83
2023-01-30T10:34:30.564Z,22.85
2023-01-30T10:37:10.849Z,22.70
2023-01-30T10:42:43.558Z,23.20
2023-01-30T10:51:38.896Z,20.88
2023-01-30T10:54:49.760Z,22.60
2023-01-30T10:57:35.717Z,21.70
2023-01-30T11:00:16.642Z,22.50
2023-01-30T11:03:33.823Z,23.20
2023-01-30T11:06:17.390Z,22.27
2023-01-30T11:08:45.623Z,22.15
2023-01-30T11:11:40.379Z,22.17
2023-01-30T11:14:12.262Z,21.73
2023-01-30T11:16:46.672Z,22.63
2023-01-30T11:19:20.725Z,24.42
2023-01-30T11:24:23.783Z,23.02
2023-01-30T11:26:53.506Z,22.90
2023-01-30T11:29:33.756Z,22.90
2023-01-30T11:32:12.129Z,23.20
2023-01-30T11:34:46.255Z,24.13
2023-01-30T11:37:32.596Z,24.35
2023-01-30T11:40:19.650Z,22.63
2023-01-30T11:42:51.008Z,23.52
2023-01-30T11:45:20.174Z,24.48
2023-01-30T11:48:03.908Z,22.23
2023-01-30T11:50:49.699Z,22.85
2023-01-30T11:53:37.101Z,22.40
2023-01-30T11:56:16.781Z,22.88
2023-01-30T11:58:48.458Z,22.00
2023-01-30T12:01:19.566Z,23.27
2023-01-30T12:03:53.372Z,21.80
2023-01-30T12:06:33.270Z,23.70
2023-01-30T12:09:01.685Z,24.33
2023-01-30T12:11:45.363Z,23.25
2023-01-30T12:14:45.115Z,23.63
2023-01-30T12:17:42.905Z,23.83
2023-01-30T12:20:37.769Z,23.38
2023-01-30T12:23:09.081Z,22.65
2023-01-30T12:25:44.477Z,22.63
2023-01-30T12:28:20.750Z,24.73
2023-01-30T12:30:56.924Z,23.02
2023-01-30T12:33:30.856Z,23.38
2023-01-30T12:36:33.075Z,23.92
2023-01-30T12:39:37.408Z,24.95
2023-01-30T12:42:22.843Z,22.88
2023-01-30T12:45:14.541Z,21.83
2023-01-30T12:47:51.464Z,22.88
2023-01-30T12:50:34.965Z,22.10
2023-01-30T12:53:05.774Z,22.38
2023-01-30T12:56:06.996Z,23.88
2023-01-30T12:58:55.971Z,21.33
2023-01-30T13:01:36.847Z,22.63
2023-01-30T13:04:15.619Z,22.88
2023-01-30T13:07:02.702Z,23.85
2023-01-30T13:09:39.752Z,23.23
2023-01-30T13:12:24.261Z,24.13
2023-01-30T13:15:08.992Z,23.50
2023-01-30T13:17:53.479Z,22.77
2023-01-30T13:20:47.474Z,23.45
2023-01-30T13:23:41.930Z,23.17
2023-01-30T13:26:14.658Z,21.23
2023-01-30T13:28:52.372Z,22.73
2023-01-30T13:31:24.802Z,23.30
2023-01-30T13:34:17.995Z,23.73
2023-01-30T13:36:54.832Z,24.02
2023-01-30T13:39:41.467Z,23.65
2023-01-30T13:42:51.719Z,23.77
2023-01-30T13:45:30.758Z,23.92
2023-01-30T13:48:20.742Z,23.45
2023-01-30T13:51:10.671Z,23.35
2023-01-30T13:53:40.135Z,23.33
2023-01-30T13:56:42.824Z,24.00
2023-01-30T13:59:38.876Z,23.67
2023-01-30T14:02:07.462Z,23.40
2023-01-30T14:07:30.721Z,22.33
2023-01-30T14:10:10.557Z,23.23
2023-01-30T14:12:40.791Z,24.17
2023-01-30T14:15:14.279Z,23.17
2023-01-30T14:18:03.546Z,24.08
2023-01-30T14:20:38.009Z,23.17
2023-01-30T14:23:19.572Z,23.70
2023-01-30T14:25:50.346Z,22.83
2023-01-30T14:28:17.770Z,23.08
2023-01-30T14:30:45.322Z,24.25
2023-01-30T14:33:22.012Z,22.33
2023-01-30T14:36:09.970Z,23.55
2023-01-30T14:38:39.897Z,22.83
2023-01-30T14:41:07.304Z,22.35
2023-01-30T14:43:42.100Z,21.42
2023-01-30T14:46:32.503Z,22.83
2023-01-30T14:49:25.258Z,22.65
2023-01-30T14:51:56.376Z,23.65
2023-01-30T14:54:41.189Z,23.27
2023-01-30T14:57:33.012Z,24.15
2023-01-30T15:00:18.536Z,22.67
2023-01-30T15:02:57.193Z,21.92
2023-01-30T15:05:54.048Z,22.23
2023-01-30T15:08:26.499Z,22.38
2023-01-30T15:11:03.024Z,23.10
2023-01-30T15:14:23.666Z,23.00
2023-01-30T15:17:06.033Z,22.10
2023-01-30T15:19:54.178Z,21.35
2023-01-30T15:22:57.140Z,20.38
2023-01-30T15:25:54.695Z,22.42
2023-01-30T15:28:53.948Z,20.35
2023-01-30T15:31:24.033Z,21.48
2023-01-30T15:33:53.706Z,20.45
2023-01-30T15:36:42.284Z,20.08
2023-01-30T15:39:21.695Z,20.85
2023-01-30T15:41:50.114Z,21.73
2023-01-30T15:44:29.634Z,21.33
2023-01-30T15:47:15.874Z,21.90
2023-01-30T15:50:03.735Z,21.08
2023-01-30T15:52:40.577Z,20.88
2023-01-30T15:55:15.527Z,20.10
2023-01-30T15:57:47.473Z,22.13
2023-01-30T16:00:43.095Z,23.17
2023-01-30T16:03:23.683Z,20.77
2023-01-30T16:05:55.900Z,21.33
2023-01-30T16:08:31.560Z,22.20
2023-01-30T16:11:00.965Z,22.75
2023-01-30T16:13:29.769Z,21.95
2023-01-30T16:16:13.792Z,21.60
2023-01-30T16:18:47.794Z,23.65
2023-01-30T16:21:25.932Z,21.90
2023-01-30T16:24:19.856Z,22.15
2023-01-30T16:26:51.716Z,23.58
2023-01-30T16:29:25.832Z,22.73
2023-01-30T16:31:55.924Z,21.27
2023-01-30T16:34:34.391Z,22.52
2023-01-30T16:40:26.383Z,21.05
2023-01-30T16:43:02.420Z,22.02
2023-01-30T16:45:35.655Z,20.92
2023-01-30T16:48:23.614Z,22.45
2023-01-30T16:51:00.281Z,21.08
2023-01-30T16:53:32.766Z,21.73
2023-01-30T16:56:09.973Z,22.20
2023-01-30T16:58:40.941Z,23.05
2023-01-30T17:01:09.143Z,21.77
2023-01-30T17:03:43.120Z,21.00
2023-01-30T17:06:25.723Z,21.33
2023-01-30T17:08:55.603Z,22.02
2023-01-30T17:14:37.569Z,22.65
2023-01-30T17:17:23.245Z,23.23
2023-01-30T17:19:50.876Z,22.25
2023-01-30T17:22:24.722Z,21.83
2023-01-30T17:24:54.836Z,20.35
2023-01-30T17:27:22.589Z,21.42
2023-01-30T17:29:50.002Z,21.85
2023-01-30T17:32:17.486Z,21.38
2023-01-30T17:34:45.568Z,22.30
2023-01-30T17:37:18.656Z,22.58
2023-01-30T17:39:46.462Z,22.70
2023-01-30T17:42:15.504Z,21.90
2023-01-30T17:44:43.212Z,22.17
2023-01-30T17:47:12.405Z,22.17
2023-01-30T17:49:40.639Z,20.85
2023-01-30T17:52:14.076Z,22.17
2023-01-30T17:54:41.709Z,22.77
2023-01-30T17:57:15.896Z,21.30
2023-01-30T17:59:43.923Z,22.98
2023-01-30T18:02:11.276Z,22.48
2023-01-30T18:04:40.305Z,22.25
2023-01-30T18:07:12.859Z,22.80
2023-01-30T18:09:40.488Z,21.45
2023-01-30T18:12:07.979Z,21.45
2023-01-30T18:14:35.617Z,20.98
2023-01-30T18:19:50.713Z,21.02
2023-01-30T18:22:18.111Z,22.88
2023-01-30T18:24:45.610Z,21.42
2023-01-30T18:27:13.550Z,21.55
2023-01-30T18:29:41.198Z,21.75
2023-01-30T18:32:08.570Z,22.08
2023-01-30T18:34:37.921Z,21.77
2023-01-30T18:37:05.315Z,21.30
2023-01-30T18:39:32.911Z,22.58
2023-01-30T18:42:02.416Z,21.92
2023-01-30T18:44:29.981Z,21.95
2023-01-30T18:46:57.365Z,21.00
2023-01-30T18:49:24.935Z,21.10
2023-01-30T18:51:52.348Z,22.50
2023-01-30T18:54:19.826Z,20.92
2023-01-30T18:56:47.390Z,22.15
2023-01-30T18:59:15.036Z,21.45
2023-01-30T19:01:42.904Z,22.30
2023-01-30T19:04:11.612Z,20.83
2023-01-30T19:09:09.002Z,22.30
2023-01-30T19:11:55.068Z,20.33
2023-01-30T19:14:22.626Z,20.83
2023-01-30T19:16:51.596Z,21.48
2023-01-30T19:19:19.257Z,21.23
2023-01-30T19:21:47.156Z,21.45
2023-01-30T19:24:16.427Z,22.27
2023-01-30T19:26:44.141Z,21.52
2023-01-30T19:29:11.902Z,19.92
2023-01-30T19:31:39.436Z,21.65
2023-01-30T19:36:48.381Z,21.13
2023-01-30T19:39:15.852Z,21.92
2023-01-30T19:41:43.422Z,21.65
2023-01-30T19:44:12.210Z,21.50
2023-01-30T19:46:39.873Z,21.52
2023-01-30T19:49:07.401Z,22.17
2023-01-30T19:51:35.400Z,21.88
2023-01-30T19:54:07.934Z,20.83
2023-01-30T19:56:36.863Z,21.95
2023-01-30T19:59:04.941Z,20.45
2023-01-30T20:01:35.815Z,20.35
2023-01-30T20:04:04.210Z,20.45
2023-01-30T20:09:04.089Z,19.92
2023-01-30T20:11:33.370Z,19.77
2023-01-30T20:14:02.228Z,21.50
2023-01-30T20:16:31.564Z,20.98
2023-01-30T20:19:04.529Z,21.95
2023-01-30T20:21:33.465Z,20.10
2023-01-30T20:26:31.762Z,19.67
2023-01-30T20:28:59.193Z,21.77
2023-01-30T20:31:45.705Z,21.42
2023-01-30T20:34:15.092Z,19.77
2023-01-30T20:36:42.481Z,20.17
2023-01-30T20:39:10.267Z,21.38
2023-01-30T20:41:38.055Z,21.35
2023-01-30T20:44:08.802Z,22.02
2023-01-30T20:46:41.948Z,20.70
2023-01-30T20:49:20.974Z,19.90
2023-01-30T20:51:50.990Z,19.15
2023-01-30T20:54:20.766Z,20.55
2023-01-30T20:56:50.585Z,20.23
2023-01-30T20:59:24.622Z,20.60
2023-01-30T21:01:52.515Z,20.92
2023-01-30T21:04:22.483Z,21.17
2023-01-30T21:06:50.436Z,19.40
2023-01-30T21:09:23.706Z,22.67
2023-01-30T21:11:52.923Z,22.17
2023-01-30T21:14:20.784Z,20.75
2023-01-30T21:16:49.094Z,21.13
2023-01-30T21:19:17.916Z,19.77
2023-01-30T21:21:52.855Z,21.17
2023-01-30T21:26:49.795Z,21.02
2023-01-30T21:29:19.664Z,20.00
2023-01-30T21:31:47.520Z,22.10
2023-01-30T21:34:15.606Z,22.05
2023-01-30T21:36:43.080Z,23.77
2023-01-30T21:39:32.418Z,23.98
2023-01-30T21:42:20.100Z,23.02
2023-01-30T21:44:48.724Z,23.42
2023-01-30T21:47:16.113Z,23.98
2023-01-30T21:49:45.841Z,23.33
2023-01-30T21:52:13.306Z,25.73
2023-01-30T21:54:40.742Z,25.20
2023-01-30T21:57:08.187Z,24.45
2023-01-30T21:59:36.435Z,25.63
2023-01-30T22:02:04.104Z,27.05
2023-01-30T22:04:35.241Z,25.80
2023-01-30T22:07:05.268Z,23.73
2023-01-30T22:09:34.064Z,22.70
2023-01-30T22:12:01.446Z,23.42
2023-01-30T22:14:29.599Z,22.20
2023-01-30T22:16:57.051Z,23.45
2023-01-30T22:19:24.832Z,22.73
2023-01-30T22:21:52.886Z,22.70
2023-01-30T22:24:20.637Z,22.50
2023-01-30T22:26:48.023Z,23.48
2023-01-30T22:29:18.321Z,21.05
2023-01-30T22:31:45.682Z,19.63
2023-01-30T22:34:13.220Z,21.15
2023-01-30T22:36:40.847Z,21.70
2023-01-30T22:39:08.769Z,21.65
2023-01-30T22:41:37.038Z,21.77
2023-01-30T22:44:07.836Z,23.08
2023-01-30T22:46:37.536Z,23.58
2023-01-30T22:49:07.076Z,24.35
2023-01-30T22:51:37.260Z,23.23
2023-01-30T22:54:11.884Z,24.13
2023-01-30T22:56:41.403Z,23.35
2023-01-30T22:59:09.930Z,23.33
2023-01-30T23:01:40.204Z,21.70
2023-01-30T23:04:11.816Z,22.02
2023-01-30T23:06:40.577Z,21.90
2023-01-30T23:09:09.554Z,23.38
2023-01-30T23:11:40.691Z,22.85
2023-01-30T23:14:10.134Z,22.50
2023-01-30T23:16:40.336Z,23.10
2023-01-30T23:19:09.462Z,21.95
2023-01-30T23:21:40.953Z,22.40
2023-01-30T23:24:12.414Z,21.98
2023-01-30T23:26:42.780Z,24.67
2023-01-30T23:29:13.528Z,24.63
2023-01-30T23:31:42.184Z,22.25
2023-01-30T23:34:14.876Z,22.70
2023-01-30T23:36:42.822Z,23.60
2023-01-30T23:39:12.246Z,23.40
2023-01-30T23:41:40.474Z,24.02
2023-01-30T23:44:08.308Z,22.70
2023-01-30T23:46:38.970Z,23.67
2023-01-30T23:49:13.933Z,23.23
2023-01-30T23:51:44.329Z,23.42
2023-01-30T23:54:13.082Z,23.50
2023-01-30T23:56:43.691Z,21.45
2023-01-30T23:59:12.469Z,21.27
